Maria Noelle — WDD9564 — position and weather

sailwx.info

Track history (hours):
 
Tides and Currents Weather Stations Pressure Air Temp Water Temp Dewpoint Dewpoint Depression Visibility Wind Speed Wind Dir Waves Ship Positions

Maria Noelle

Owner: MUROS INC, POINT PLEASANT, NJ. More information available from US FCC via Universal Licensing System and Coast Guard Vessel Documentation Center.

Last reported at 2014-Nov-25 15:25 UTC. Time now 2014-Nov-27 13:11 UTC.
Position N 40°07' W 073°17'.

Length 26 m.

Type: Fishing. MMSI: 367313170.

Date/timePositionNaut miles runAvg speedWind from/ knotsBaromVisibWave heightAir tempDewpointWater temp
2014-Nov-25 15:25N 40°07' W 073°17'5 4.3
2014-Nov-25 14:21N 40°07' W 073°23'5 6.4
2014-Nov-25 13:33N 40°07' W 073°30'8 7.6
2014-Nov-25 12:33N 40°06' W 073°40'8 7.7
2014-Nov-25 11:33N 40°06' W 073°50'  
2014-Nov-16 20:22N 40°03' W 073°33'24 5.7
2014-Nov-16 16:06N 40°00' W 073°02'4 2.5
2014-Nov-16 14:32N 40°00' W 073°07'3 3.2
2014-Nov-16 13:33N 40°00' W 073°03'0 0.0
2014-Nov-16 12:16N 40°00' W 073°03'2 3.3
2014-Nov-16 11:33N 39°60' W 072°60'  
Track history (hours):
 
Tides and Currents Weather Stations Pressure Air Temp Water Temp Dewpoint Dewpoint Depression Visibility Wind Speed Wind Dir Waves Ship Positions

Maria Noelle

Owner: MUROS INC, POINT PLEASANT, NJ. More information available from US FCC via Universal Licensing System and Coast Guard Vessel Documentation Center.

Last reported at 2014-Nov-25 15:25 UTC. Time now 2014-Nov-27 13:11 UTC.
Position N 40°07' W 073°17'.

Length 26 m.

Type: Fishing. MMSI: 367313170.

Date/timePositionNaut miles runAvg speedWind from/ knotsBaromVisibWave heightAir tempDewpointWater temp
2014-Nov-25 15:25N 40°07' W 073°17'5 4.3
2014-Nov-25 14:21N 40°07' W 073°23'5 6.4
2014-Nov-25 13:33N 40°07' W 073°30'8 7.6
2014-Nov-25 12:33N 40°06' W 073°40'8 7.7
2014-Nov-25 11:33N 40°06' W 073°50'  
2014-Nov-16 20:22N 40°03' W 073°33'24 5.7
2014-Nov-16 16:06N 40°00' W 073°02'4 2.5
2014-Nov-16 14:32N 40°00' W 073°07'3 3.2
2014-Nov-16 13:33N 40°00' W 073°03'0 0.0
2014-Nov-16 12:16N 40°00' W 073°03'2 3.3
2014-Nov-16 11:33N 39°60' W 072°60'  

Dump ship's entire track history